Rocklake, North Dakota
Current Conditions -  °F | °C
As of 4:55 PM on Friday 31 Oct 2014 (Local Time) from K06D Reporting Station
Clear Clear  
Wind Chill: 25°   Ceiling: Unl
Heat Index: 36°   Visibility: 10mi
Dew Point: 10°   Wind: 20mph
Humidity: 35%   Direction: 170°S
Pressure: 30.26"   Gusts: 26mph
Location:  48.79°N, 99.25°W
Report Text: K06D 312155Z AUTO 17017G23KT 10SM CLR 02/M12 A3026 RMK AO2
Loading
Personal Weather Stations






























Interactive Weather Map
Tropical Storm Tracking
New forecast layout! Learn more

10-Day Weather Forecast

Advertisements
Track Severe Weather on mobile